Time;durP1;ratioP1;P1;durP2;ratioP2;P2;SDS_P1;SDS_P2;PMS_P1;PMS_P2;Temp;Humidity;BMP_temperature;BMP_pressure;BME280_temperature;BME280_humidity;BME280_pressure;Samples;Min_cycle;Max_cycle;Signal;HPM_P1;HPM_P2
2023/10/20 00:01:13;;;;;;;12.77;8.27;;;15.20;99.90;;;;;;5021656;28;20354;-88
2023/10/20 00:03:38;;;;;;;9.95;8.10;;;15.20;99.90;;;;;;5020126;28;20029;-88
2023/10/20 00:06:04;;;;;;;12.70;9.32;;;15.20;99.90;;;;;;5025204;28;20032;-88
2023/10/20 00:08:30;;;;;;;9.80;7.53;;;15.10;99.90;;;;;;5036916;28;20025;-87
2023/10/20 00:11:05;;;;;;;10.80;7.85;;;15.20;99.90;;;;;;5007152;28;20056;-88
2023/10/20 00:13:32;;;;;;;9.27;7.47;;;15.20;99.90;;;;;;5039119;28;20037;-88
2023/10/20 00:15:58;;;;;;;11.43;8.85;;;15.20;99.90;;;;;;5013585;28;20385;-89
2023/10/20 00:18:24;;;;;;;11.77;8.88;;;15.20;99.90;;;;;;5020519;28;20523;-88
2023/10/20 00:20:52;;;;;;;12.00;9.13;;;15.20;99.90;;;;;;5024243;28;20112;-88
2023/10/20 00:23:19;;;;;;;10.60;9.48;;;15.20;99.90;;;;;;5077438;28;20066;-87
2023/10/20 00:25:44;;;;;;;9.65;8.65;;;15.20;99.90;;;;;;5071513;28;20005;-88
2023/10/20 00:28:10;;;;;;;12.30;9.93;;;15.20;99.90;;;;;;5071873;28;20041;-88
2023/10/20 00:30:40;;;;;;;14.13;10.82;;;15.10;99.90;;;;;;5043968;28;20045;-88
2023/10/20 00:33:05;;;;;;;12.75;10.00;;;15.20;99.90;;;;;;5050897;28;20507;-88
2023/10/20 00:35:31;;;;;;;12.88;8.98;;;15.20;99.90;;;;;;5020131;28;20025;-88
2023/10/20 00:37:58;;;;;;;13.23;10.57;;;15.10;99.90;;;;;;5032357;28;20037;-87
2023/10/20 00:40:27;;;;;;;12.63;10.90;;;15.20;99.90;;;;;;5036476;28;20040;-88
2023/10/20 00:42:55;;;;;;;12.30;11.00;;;15.20;99.90;;;;;;5057289;28;20025;-88
2023/10/20 00:45:23;;;;;;;13.25;11.57;;;15.20;99.90;;;;;;5035606;28;20036;-87
2023/10/20 00:47:49;;;;;;;11.63;10.43;;;15.20;99.90;;;;;;5037081;28;20056;-88
2023/10/20 00:50:16;;;;;;;18.60;11.30;;;15.20;99.90;;;;;;5036092;28;20025;-87
2023/10/20 00:52:45;;;;;;;12.43;11.20;;;15.20;99.90;;;;;;5035947;28;20100;-87
2023/10/20 00:55:13;;;;;;;14.38;12.23;;;15.20;99.90;;;;;;5036008;28;20017;-87
2023/10/20 00:57:39;;;;;;;14.10;12.35;;;15.20;99.90;;;;;;5035890;28;20491;-89
2023/10/20 01:00:08;;;;;;;14.00;12.23;;;15.20;99.90;;;;;;5036014;28;20057;-88
2023/10/20 01:02:36;;;;;;;13.88;11.45;;;15.20;99.90;;;;;;5020897;28;20033;-87
2023/10/20 01:05:05;;;;;;;15.00;13.43;;;15.20;99.90;;;;;;5039797;28;20560;-89
2023/10/20 01:07:31;;;;;;;14.07;12.60;;;15.20;99.90;;;;;;5039628;28;20029;-88
2023/10/20 01:10:04;;;;;;;12.45;11.15;;;15.20;99.90;;;;;;5038006;28;20029;-88
2023/10/20 01:12:33;;;;;;;16.17;14.45;;;15.10;99.90;;;;;;5035584;28;20074;-88
2023/10/20 01:14:59;;;;;;;13.82;12.45;;;15.10;99.90;;;;;;5036297;28;20017;-89
2023/10/20 01:17:29;;;;;;;15.10;13.48;;;15.10;99.90;;;;;;5019948;28;20033;-87
2023/10/20 01:19:55;;;;;;;14.93;13.43;;;15.10;99.90;;;;;;5070329;28;20048;-88
2023/10/20 01:22:21;;;;;;;18.08;14.65;;;15.10;99.90;;;;;;5023609;28;20033;-89
2023/10/20 01:24:47;;;;;;;15.93;14.25;;;15.10;99.90;;;;;;5022860;28;20036;-88
2023/10/20 01:27:13;;;;;;;15.20;13.57;;;15.00;99.90;;;;;;5023334;28;20152;-88
2023/10/20 01:29:39;;;;;;;17.17;14.70;;;15.00;99.90;;;;;;5022920;28;20029;-88
2023/10/20 01:32:05;;;;;;;16.27;14.60;;;15.00;99.90;;;;;;5039404;28;20016;-87
2023/10/20 01:34:31;;;;;;;14.65;13.20;;;15.00;99.90;;;;;;5023096;28;20121;-88
2023/10/20 01:36:57;;;;;;;15.88;14.20;;;15.00;99.90;;;;;;5039967;28;20052;-88
2023/10/20 01:39:22;;;;;;;16.98;14.80;;;15.00;99.90;;;;;;5056909;28;20068;-88
2023/10/20 01:41:51;;;;;;;15.65;14.02;;;15.00;99.90;;;;;;5039635;28;20067;-87
2023/10/20 01:44:17;;;;;;;16.63;14.88;;;15.00;99.90;;;;;;5048448;28;20021;-88
2023/10/20 01:46:49;;;;;;;18.33;16.02;;;15.00;99.90;;;;;;5022996;28;20032;-87
2023/10/20 01:49:17;;;;;;;19.38;16.88;;;15.00;99.90;;;;;;5023716;28;20055;-87
2023/10/20 01:51:46;;;;;;;17.60;15.80;;;14.90;99.90;;;;;;5023480;28;20457;-87
2023/10/20 01:54:14;;;;;;;16.95;15.15;;;14.90;99.90;;;;;;5056874;28;20045;-87
2023/10/20 01:56:40;;;;;;;19.88;16.65;;;14.90;99.90;;;;;;5055123;28;20035;-87
2023/10/20 01:59:06;;;;;;;18.83;16.92;;;14.90;99.90;;;;;;5055263;28;20037;-88
2023/10/20 02:01:34;;;;;;;18.77;16.77;;;14.80;99.90;;;;;;5037161;28;20028;-88
2023/10/20 02:04:00;;;;;;;18.23;16.38;;;14.80;99.90;;;;;;5076819;28;20038;-89
2023/10/20 02:06:26;;;;;;;21.90;19.45;;;14.80;99.90;;;;;;5075228;28;20456;-87
2023/10/20 02:08:54;;;;;;;23.25;19.17;;;14.80;99.90;;;;;;5067075;28;20057;-87
2023/10/20 02:11:20;;;;;;;21.00;17.73;;;14.80;99.90;;;;;;5063426;28;20013;-87
2023/10/20 02:13:45;;;;;;;23.08;19.50;;;14.80;99.90;;;;;;5017935;28;20030;-87
2023/10/20 02:16:12;;;;;;;19.70;17.23;;;14.80;99.90;;;;;;5030498;28;20420;-88
2023/10/20 02:18:39;;;;;;;18.15;16.25;;;14.80;99.90;;;;;;5066909;28;20029;-88
2023/10/20 02:21:09;;;;;;;20.35;17.83;;;14.70;99.90;;;;;;5041774;28;20025;-87
2023/10/20 02:23:38;;;;;;;18.23;15.47;;;14.70;99.90;;;;;;5039057;28;20057;-87
2023/10/20 02:26:05;;;;;;;19.70;16.77;;;14.70;99.90;;;;;;5022749;28;20081;-87
2023/10/20 02:28:32;;;;;;;19.73;17.63;;;14.70;99.90;;;;;;5038541;28;20049;-87
2023/10/20 02:30:59;;;;;;;17.60;15.70;;;14.70;99.90;;;;;;5020786;28;20025;-88
2023/10/20 02:33:25;;;;;;;21.02;17.48;;;14.70;99.90;;;;;;5041140;28;20079;-88
2023/10/20 02:35:54;;;;;;;22.13;19.23;;;14.70;99.90;;;;;;5038540;28;20017;-88
2023/10/20 02:38:20;;;;;;;19.23;17.23;;;14.70;99.90;;;;;;5035522;28;20064;-88
2023/10/20 02:40:53;;;;;;;21.00;18.17;;;14.70;99.90;;;;;;5021777;28;20476;-88
2023/10/20 02:43:18;;;;;;;19.77;16.40;;;14.70;99.90;;;;;;5038321;28;20021;-87
2023/10/20 02:45:52;;;;;;;19.70;16.42;;;14.70;99.90;;;;;;5037891;28;20017;-88
2023/10/20 02:48:19;;;;;;;19.17;16.60;;;14.70;99.90;;;;;;5038292;28;20052;-87
2023/10/20 02:50:45;;;;;;;20.15;16.92;;;14.80;99.90;;;;;;5055467;28;20369;-88
2023/10/20 02:53:13;;;;;;;20.98;18.00;;;14.80;99.90;;;;;;5046123;28;20017;-88
2023/10/20 02:55:40;;;;;;;20.27;17.10;;;14.80;99.90;;;;;;5041448;28;20033;-87
2023/10/20 02:58:07;;;;;;;23.77;18.38;;;14.70;99.90;;;;;;5047592;28;20056;-88
2023/10/20 03:00:42;;;;;;;21.85;18.05;;;14.70;99.90;;;;;;5055461;28;20065;-87
2023/10/20 03:03:08;;;;;;;26.58;21.73;;;14.70;99.90;;;;;;5022603;28;20022;-87
2023/10/20 03:05:34;;;;;;;26.30;20.95;;;14.70;99.90;;;;;;5026950;28;20052;-87
2023/10/20 03:08:00;;;;;;;26.75;20.98;;;14.60;99.90;;;;;;5055124;28;20024;-87
2023/10/20 03:10:26;;;;;;;29.65;22.73;;;14.60;99.90;;;;;;5021320;28;20052;-87
2023/10/20 03:12:52;;;;;;;26.15;20.67;;;14.60;99.90;;;;;;5037326;28;20040;-87
2023/10/20 03:15:17;;;;;;;26.35;20.40;;;14.50;99.90;;;;;;5037567;28;20029;-88
2023/10/20 03:17:48;;;;;;;29.23;21.42;;;14.50;99.90;;;;;;5054810;28;20262;-88
2023/10/20 03:20:17;;;;;;;;;;;14.50;99.90;;;;;;5056154;28;20125;-87
2023/10/20 03:22:47;;;;;;;28.38;20.77;;;14.50;99.90;;;;;;5037173;28;19916;-87
2023/10/20 03:25:13;;;;;;;27.60;21.07;;;14.40;99.90;;;;;;5021741;28;20040;-87
2023/10/20 03:27:41;;;;;;;30.27;21.83;;;14.40;99.90;;;;;;5055370;28;20463;-89
2023/10/20 03:30:09;;;;;;;34.72;23.83;;;14.30;99.90;;;;;;5037690;28;20033;-87
2023/10/20 03:32:35;;;;;;;31.75;23.75;;;14.30;99.90;;;;;;5037287;28;20016;-88
2023/10/20 03:35:01;;;;;;;30.20;22.40;;;14.20;99.90;;;;;;5037600;28;20025;-88
2023/10/20 03:37:28;;;;;;;33.40;24.38;;;14.20;99.90;;;;;;5031182;28;20033;-88
2023/10/20 03:39:53;;;;;;;27.35;19.95;;;14.20;99.90;;;;;;5057681;28;20388;-88
2023/10/20 03:42:22;;;;;;;31.42;21.70;;;14.20;99.90;;;;;;5038835;28;20010;-89
2023/10/20 03:44:48;;;;;;;32.35;22.98;;;14.10;99.90;;;;;;5046057;28;20021;-89
2023/10/20 03:47:15;;;;;;;29.63;20.60;;;14.10;99.90;;;;;;5044734;28;20047;-89
2023/10/20 03:49:41;;;;;;;31.58;22.42;;;14.10;99.90;;;;;;5045123;28;20010;-88
2023/10/20 03:52:11;;;;;;;32.60;23.10;;;14.10;99.90;;;;;;5044537;28;20021;-87
2023/10/20 03:54:38;;;;;;;31.08;21.70;;;14.10;99.90;;;;;;5059986;28;20024;-88
2023/10/20 03:57:04;;;;;;;28.60;19.67;;;14.00;99.90;;;;;;5044477;28;20461;-88
2023/10/20 03:59:31;;;;;;;31.27;22.90;;;14.00;99.90;;;;;;5033837;28;20060;-89
2023/10/20 04:01:56;;;;;;;29.13;21.58;;;14.00;99.90;;;;;;5033740;28;20035;-88
2023/10/20 04:04:22;;;;;;;30.75;23.00;;;14.00;99.90;;;;;;5017296;28;20065;-88
2023/10/20 04:06:49;;;;;;;33.55;22.60;;;13.90;99.90;;;;;;5033212;28;20021;-88
2023/10/20 04:09:17;;;;;;;30.85;22.02;;;13.90;99.90;;;;;;5029521;28;20069;-88
2023/10/20 04:11:44;;;;;;;32.05;21.77;;;13.90;99.90;;;;;;5013530;28;20018;-88
2023/10/20 04:14:10;;;;;;;27.38;20.83;;;13.90;99.90;;;;;;5046490;28;20166;-87
2023/10/20 04:16:39;;;;;;;31.70;22.38;;;13.90;99.90;;;;;;5052956;28;20055;-88
2023/10/20 04:19:14;;;;;;;28.80;21.60;;;13.90;99.90;;;;;;5051784;28;20400;-87
2023/10/20 04:21:48;;;;;;;34.97;21.83;;;13.90;99.90;;;;;;5017028;28;20026;-87
2023/10/20 04:24:14;;;;;;;29.83;20.10;;;13.80;99.90;;;;;;5016545;28;20029;-87
2023/10/20 04:26:47;;;;;;;32.10;20.63;;;13.80;99.90;;;;;;5016908;28;20520;-88
2023/10/20 04:29:23;;;;;;;28.77;20.20;;;13.80;99.90;;;;;;5014552;28;20030;-88
2023/10/20 04:54:19;;;;;;;27.75;20.08;;;13.60;99.90;;;;;;5036470;28;20064;-88
2023/10/20 04:57:20;;;;;;;26.80;19.58;;;13.60;99.90;;;;;;5022001;28;20498;-87
2023/10/20 04:59:31;;;;;;;28.77;21.23;;;13.60;99.90;;;;;;5060280;28;20086;-87
2023/10/20 05:02:10;;;;;;;30.33;21.65;;;13.60;99.90;;;;;;5066408;28;20013;-87
2023/10/20 05:04:40;;;;;;;29.52;20.77;;;13.50;99.90;;;;;;5040164;28;20013;-87
2023/10/20 05:07:08;;;;;;;30.45;20.50;;;13.40;99.90;;;;;;5040149;28;20108;-89
2023/10/20 05:09:43;;;;;;;27.15;19.65;;;13.40;99.90;;;;;;5040178;28;20029;-89
2023/10/20 05:12:09;;;;;;;27.92;18.50;;;13.30;99.90;;;;;;5040051;28;20464;-87
2023/10/20 05:14:34;;;;;;;26.67;19.20;;;13.40;99.90;;;;;;5023524;28;20022;-88
2023/10/20 05:17:00;;;;;;;23.60;17.77;;;13.40;99.90;;;;;;5023091;28;20029;-91
2023/10/20 05:19:32;;;;;;;25.77;18.63;;;13.30;99.90;;;;;;5047007;28;20116;-87
2023/10/20 05:21:59;;;;;;;24.33;17.67;;;13.30;99.90;;;;;;5054268;28;20112;-89
2023/10/20 05:24:25;;;;;;;22.83;17.40;;;13.30;99.90;;;;;;5055208;28;20020;-88
2023/10/20 05:26:50;;;;;;;22.02;16.95;;;13.30;99.90;;;;;;5058374;28;20033;-88
2023/10/20 05:29:16;;;;;;;23.88;16.17;;;13.30;99.90;;;;;;5063678;28;20025;-89
2023/10/20 05:31:42;;;;;;;20.10;15.05;;;13.20;99.90;;;;;;5048188;28;20036;-87
2023/10/20 05:34:09;;;;;;;23.58;15.43;;;13.30;99.90;;;;;;5053348;28;20013;-87
2023/10/20 05:36:37;;;;;;;18.42;14.02;;;13.30;99.90;;;;;;5059544;28;20025;-87
2023/10/20 05:39:09;;;;;;;18.98;14.07;;;13.30;99.90;;;;;;5039402;28;20041;-86
2023/10/20 05:41:37;;;;;;;19.63;13.85;;;13.30;99.90;;;;;;5039420;28;20463;-87
2023/10/20 05:44:06;;;;;;;20.08;14.60;;;13.30;99.90;;;;;;5022730;28;20146;-87
2023/10/20 05:46:32;;;;;;;15.35;11.52;;;13.30;99.90;;;;;;5019111;28;20488;-87
2023/10/20 05:48:57;;;;;;;13.02;10.82;;;13.30;99.90;;;;;;5035608;28;20022;-88
2023/10/20 05:51:23;;;;;;;15.35;11.30;;;13.30;99.90;;;;;;5035274;28;20180;-87
2023/10/20 05:53:49;;;;;;;14.50;11.38;;;13.30;99.90;;;;;;5038548;28;20112;-87
2023/10/20 05:56:14;;;;;;;15.10;10.70;;;13.30;99.90;;;;;;5021938;28;20025;-88
2023/10/20 05:58:43;;;;;;;11.63;9.27;;;13.30;99.90;;;;;;5022329;28;20033;-87
2023/10/20 06:01:14;;;;;;;11.13;9.25;;;13.20;99.90;;;;;;5022445;28;20048;-88
2023/10/20 06:03:40;;;;;;;11.23;9.05;;;13.20;99.90;;;;;;5038786;28;20504;-87
2023/10/20 06:06:06;;;;;;;11.13;9.02;;;13.20;99.90;;;;;;5007533;28;20034;-88
2023/10/20 06:08:31;;;;;;;12.95;10.00;;;13.20;99.90;;;;;;5002378;28;20065;-87
2023/10/20 06:11:04;;;;;;;11.35;9.40;;;13.20;99.90;;;;;;5033816;28;20087;-88
2023/10/20 06:13:32;;;;;;;13.13;10.27;;;13.20;99.90;;;;;;5038153;28;20057;-87
2023/10/20 06:16:04;;;;;;;13.45;10.55;;;13.20;99.90;;;;;;5042073;28;20024;-87
2023/10/20 06:18:29;;;;;;;16.92;12.43;;;13.20;99.90;;;;;;5033114;28;20044;-88
2023/10/20 06:20:55;;;;;;;13.95;10.23;;;13.10;99.90;;;;;;5038283;28;20025;-89
2023/10/20 06:23:23;;;;;;;14.13;11.63;;;13.10;99.90;;;;;;5021700;28;20071;-89
2023/10/20 06:25:49;;;;;;;20.65;15.00;;;13.10;99.90;;;;;;5038696;28;20025;-88
2023/10/20 06:28:15;;;;;;;19.13;13.63;;;13.10;99.90;;;;;;5048259;28;20024;-89
2023/10/20 06:30:46;;;;;;;18.73;13.82;;;13.10;99.90;;;;;;5050863;28;20032;-88
2023/10/20 06:35:49;;;;;;;20.88;14.15;;;13.00;99.90;;;;;;5038323;28;20029;-90
2023/10/20 06:38:17;;;;;;;19.98;14.75;;;13.00;99.90;;;;;;5063353;28;20037;-88
2023/10/20 06:40:44;;;;;;;19.38;15.07;;;12.90;99.90;;;;;;5039621;28;20024;-88
2023/10/20 06:43:20;;;;;;;19.90;14.02;;;13.00;99.90;;;;;;5050665;28;20469;-88
2023/10/20 06:45:55;;;;;;;24.25;16.52;;;13.00;99.90;;;;;;5022797;28;20045;-90
2023/10/20 06:48:20;;;;;;;23.45;15.57;;;13.00;99.90;;;;;;5038569;28;20111;-89
2023/10/20 06:50:56;;;;;;;23.23;15.85;;;12.90;99.90;;;;;;5056548;28;20055;-88
2023/10/20 06:53:22;;;;;;;21.42;15.63;;;12.90;99.90;;;;;;5027004;28;20013;-88
2023/10/20 06:55:48;;;;;;;22.73;15.38;;;12.90;99.90;;;;;;5036666;28;20030;-90
2023/10/20 06:58:19;;;;;;;22.00;15.02;;;12.80;99.90;;;;;;5066537;28;20040;-89
2023/10/20 07:00:46;;;;;;;;;;;12.80;99.90;;;;;;5074355;28;20497;-89
2023/10/20 07:03:15;;;;;;;22.58;13.88;;;12.80;99.90;;;;;;5062182;28;19919;-87
2023/10/20 07:05:51;;;;;;;19.90;13.98;;;12.80;99.90;;;;;;5062052;28;20041;-89
2023/10/20 07:08:17;;;;;;;17.23;12.07;;;12.80;99.90;;;;;;5074107;28;20025;-88
2023/10/20 07:10:43;;;;;;;18.65;11.63;;;12.70;99.90;;;;;;5053320;28;20092;-87
2023/10/20 07:13:12;;;;;;;20.50;13.25;;;12.80;99.90;;;;;;5043228;28;20067;-87
2023/10/20 07:15:40;;;;;;;17.52;12.20;;;12.80;99.90;;;;;;5017538;28;20025;-88
2023/10/20 07:18:06;;;;;;;17.27;12.13;;;12.80;99.90;;;;;;5050039;28;20037;-88
2023/10/20 07:20:34;;;;;;;16.30;11.52;;;12.80;99.90;;;;;;5055543;28;20025;-87
2023/10/20 07:23:00;;;;;;;14.98;11.27;;;12.70;99.90;;;;;;5035632;28;20100;-87
2023/10/20 07:25:27;;;;;;;16.15;10.30;;;12.70;99.90;;;;;;5032763;28;20045;-87
2023/10/20 07:27:56;;;;;;;14.00;10.38;;;12.70;99.90;;;;;;5025225;28;20362;-87
2023/10/20 07:30:23;;;;;;;13.30;10.18;;;12.70;99.90;;;;;;5056765;28;20036;-87
2023/10/20 07:32:51;;;;;;;13.10;10.45;;;12.70;99.90;;;;;;5037792;28;20090;-86
2023/10/20 07:35:17;;;;;;;14.88;10.15;;;12.70;99.90;;;;;;5021076;28;20032;-88
2023/10/20 07:37:46;;;;;;;13.23;9.77;;;12.70;99.90;;;;;;5036938;28;20381;-88
2023/10/20 07:40:13;;;;;;;13.13;9.02;;;12.60;99.90;;;;;;5054119;28;20074;-87
2023/10/20 07:42:45;;;;;;;15.13;9.27;;;12.60;99.90;;;;;;5058997;28;20104;-90
2023/10/20 07:45:12;;;;;;;13.63;8.77;;;12.60;99.90;;;;;;5037381;28;20480;-90
2023/10/20 07:47:37;;;;;;;11.35;8.40;;;12.60;99.90;;;;;;5054275;28;20047;-88
2023/10/20 07:50:06;;;;;;;12.90;8.68;;;12.50;99.90;;;;;;5037060;28;20021;-88
2023/10/20 07:52:32;;;;;;;15.32;8.10;;;12.50;99.90;;;;;;5036885;28;20025;-87
2023/10/20 07:55:02;;;;;;;10.35;7.85;;;12.50;99.90;;;;;;5036512;28;20023;-89
2023/10/20 07:57:30;;;;;;;11.88;7.75;;;12.40;99.90;;;;;;5020712;28;20388;-87
2023/10/20 07:59:56;;;;;;;11.88;7.68;;;12.40;99.90;;;;;;5025546;28;20123;-87
2023/10/20 08:02:22;;;;;;;11.00;7.30;;;12.30;99.90;;;;;;5047812;28;20068;-87
2023/10/20 08:04:50;;;;;;;10.43;7.65;;;12.30;99.90;;;;;;5054791;28;20104;-87
2023/10/20 08:07:16;;;;;;;9.07;6.32;;;12.30;99.90;;;;;;5020271;28;20017;-87
2023/10/20 08:09:43;;;;;;;7.95;6.20;;;12.30;99.90;;;;;;5036546;28;20029;-88
2023/10/20 08:12:09;;;;;;;7.55;5.72;;;12.30;99.90;;;;;;5035305;28;20111;-87
2023/10/20 08:14:35;;;;;;;7.30;5.55;;;12.30;99.90;;;;;;5041384;28;20053;-88
2023/10/20 08:17:03;;;;;;;7.22;5.60;;;12.30;99.90;;;;;;5053979;28;20027;-88
2023/10/20 08:19:30;;;;;;;6.93;5.38;;;12.30;99.90;;;;;;5036278;28;20029;-88
2023/10/20 08:21:56;;;;;;;6.63;5.10;;;12.20;99.90;;;;;;5020228;28;20053;-87
2023/10/20 08:24:22;;;;;;;7.85;5.30;;;12.20;99.90;;;;;;5036487;28;20056;-87
2023/10/20 08:26:53;;;;;;;7.07;4.90;;;12.20;99.90;;;;;;5040889;28;20465;-89
2023/10/20 08:29:19;;;;;;;6.20;4.80;;;12.20;99.90;;;;;;5043006;28;20083;-87
2023/10/20 08:31:45;;;;;;;4.80;4.10;;;12.20;99.90;;;;;;5008077;28;20029;-87
2023/10/20 08:34:10;;;;;;;5.05;3.95;;;12.20;99.90;;;;;;5054195;28;20021;-88
2023/10/20 08:36:39;;;;;;;4.78;3.85;;;12.20;99.90;;;;;;5040911;28;20028;-88
2023/10/20 08:39:13;;;;;;;5.70;3.97;;;12.10;99.90;;;;;;5059240;28;20115;-89
2023/10/20 08:41:43;;;;;;;4.80;4.05;;;12.10;99.90;;;;;;5061078;28;20017;-89
2023/10/20 08:44:10;;;;;;;4.68;3.67;;;12.10;99.90;;;;;;5058385;28;20076;-88
2023/10/20 08:46:36;;;;;;;4.40;3.58;;;12.10;99.90;;;;;;5037470;28;20021;-87
2023/10/20 08:49:05;;;;;;;3.75;3.22;;;12.10;99.90;;;;;;5023060;28;20117;-88
2023/10/20 08:51:30;;;;;;;5.30;3.53;;;12.10;99.90;;;;;;5036690;28;20022;-88
2023/10/20 08:53:58;;;;;;;3.50;2.95;;;12.10;99.90;;;;;;5036660;28;20162;-88
2023/10/20 08:56:26;;;;;;;3.22;2.90;;;12.10;99.90;;;;;;5053522;28;20069;-89
2023/10/20 08:58:52;;;;;;;4.00;2.70;;;12.00;99.90;;;;;;5057755;28;20040;-87
2023/10/20 09:01:18;;;;;;;4.05;2.80;;;12.10;99.90;;;;;;5072976;28;20048;-88
2023/10/20 09:03:48;;;;;;;3.03;2.70;;;12.00;99.90;;;;;;5029175;28;20025;-87
2023/10/20 09:06:14;;;;;;;2.97;2.60;;;12.00;99.90;;;;;;5024755;28;20466;-88
2023/10/20 09:08:47;;;;;;;2.35;2.15;;;11.90;99.90;;;;;;5036017;28;20044;-89
2023/10/20 09:11:15;;;;;;;3.22;2.40;;;11.90;99.90;;;;;;5035092;28;20018;-88
2023/10/20 09:13:43;;;;;;;2.45;2.25;;;11.90;99.90;;;;;;5016534;28;20029;-87
2023/10/20 09:16:10;;;;;;;2.45;2.25;;;11.90;99.90;;;;;;5016370;28;20060;-88
2023/10/20 09:18:52;;;;;;;2.97;1.98;;;12.00;99.90;;;;;;5048382;28;20029;-88
2023/10/20 09:21:24;;;;;;;2.45;2.20;;;11.90;99.90;;;;;;5037573;28;20024;-87
2023/10/20 09:24:10;;;;;;;2.88;1.80;;;11.90;99.90;;;;;;5048267;28;20020;-88
2023/10/20 09:26:37;;;;;;;3.08;1.90;;;11.90;99.90;;;;;;5055935;28;20452;-88
2023/10/20 09:29:33;;;;;;;2.38;1.65;;;11.90;99.90;;;;;;5035221;28;20098;-87
2023/10/20 09:32:00;;;;;;;2.67;2.00;;;12.00;99.90;;;;;;5020407;28;20039;-88
2023/10/20 09:34:26;;;;;;;2.00;1.80;;;11.90;99.90;;;;;;5035935;28;20108;-88
2023/10/20 09:36:56;;;;;;;2.15;1.60;;;11.90;99.90;;;;;;5036292;28;20443;-88
2023/10/20 09:39:31;;;;;;;2.10;1.67;;;11.80;99.90;;;;;;5037977;28;20029;-88
2023/10/20 09:42:02;;;;;;;2.33;1.85;;;11.90;99.90;;;;;;5048466;28;20029;-89
2023/10/20 09:45:09;;;;;;;1.90;1.70;;;11.90;99.90;;;;;;5029831;28;20029;-89
2023/10/20 09:47:36;;;;;;;1.77;1.50;;;11.80;99.90;;;;;;5009058;28;20048;-88
2023/10/20 09:50:02;;;;;;;1.30;1.20;;;11.80;99.90;;;;;;5023012;28;20029;-88
2023/10/20 09:52:29;;;;;;;1.90;1.60;;;11.80;99.90;;;;;;5039484;28;20021;-90
2023/10/20 09:54:59;;;;;;;1.58;1.40;;;11.80;99.90;;;;;;5057013;28;20029;-90
2023/10/20 09:57:26;;;;;;;1.65;1.15;;;11.80;99.90;;;;;;5039819;28;20025;-89
2023/10/20 09:59:53;;;;;;;0.95;0.80;;;11.70;99.90;;;;;;5028192;28;20056;-90
2023/10/20 10:02:27;;;;;;;1.55;1.10;;;11.70;99.90;;;;;;5019802;28;20124;-90
2023/10/20 10:04:54;;;;;;;1.60;1.15;;;11.70;99.90;;;;;;5036388;28;20029;-89
2023/10/20 10:07:35;;;;;;;1.58;1.00;;;11.60;99.90;;;;;;5057253;28;20020;-91
2023/10/20 10:10:02;;;;;;;;;;;11.60;99.90;;;;;;5007034;28;20036;-87
2023/10/20 10:12:28;;;;;;;1.67;1.20;;;11.60;99.90;;;;;;5022984;28;19932;-88
2023/10/20 10:14:59;;;;;;;0.95;0.88;;;11.60;99.90;;;;;;5057782;28;20024;-88
2023/10/20 10:17:28;;;;;;;0.80;0.80;;;11.60;99.90;;;;;;5082833;28;20024;-86
2023/10/20 10:19:56;;;;;;;1.13;1.02;;;11.60;99.90;;;;;;5034442;28;20119;-86
2023/10/20 10:22:27;;;;;;;1.42;1.15;;;11.60;99.90;;;;;;5042635;28;20032;-89
2023/10/20 10:24:54;;;;;;;1.37;1.23;;;11.60;99.90;;;;;;5027913;28;20022;-89
2023/10/20 10:27:29;;;;;;;1.27;0.93;;;11.50;99.90;;;;;;5046197;28;20021;-88
2023/10/20 10:30:06;;;;;;;1.50;0.90;;;11.60;99.90;;;;;;5010429;28;20049;-87
2023/10/20 10:32:33;;;;;;;1.05;0.93;;;11.60;99.90;;;;;;5023928;28;20025;-88
2023/10/20 10:35:01;;;;;;;1.73;0.93;;;11.60;99.90;;;;;;5056706;28;20032;-88
2023/10/20 10:37:37;;;;;;;1.45;1.10;;;11.60;99.90;;;;;;5053081;28;20524;-87
2023/10/20 10:40:10;;;;;;;1.35;0.90;;;11.70;99.90;;;;;;5051273;28;20036;-88
2023/10/20 10:42:46;;;;;;;1.65;1.30;;;11.60;99.90;;;;;;5040909;28;20036;-87
2023/10/20 10:45:23;;;;;;;0.90;0.90;;;11.60;99.90;;;;;;5035085;28;20036;-89
2023/10/20 10:48:08;;;;;;;2.05;1.20;;;11.50;99.90;;;;;;5029602;28;20033;-90
2023/10/20 10:50:36;;;;;;;1.20;1.00;;;11.60;99.90;;;;;;5026010;28;20531;-88
2023/10/20 10:53:02;;;;;;;1.67;1.00;;;11.50;99.90;;;;;;5022539;28;20032;-89
2023/10/20 10:55:29;;;;;;;1.40;1.10;;;11.60;99.90;;;;;;5009405;28;20034;-90
2023/10/20 10:57:57;;;;;;;1.73;1.23;;;11.60;99.90;;;;;;5013420;28;20496;-90
2023/10/20 11:00:24;;;;;;;1.05;0.90;;;11.60;99.90;;;;;;5045605;28;20040;-89
2023/10/20 11:02:51;;;;;;;1.02;0.93;;;11.60;99.90;;;;;;5026288;28;20472;-89
2023/10/20 11:05:23;;;;;;;1.10;1.00;;;11.60;99.90;;;;;;5027520;28;20138;-90
2023/10/20 11:08:09;;;;;;;1.08;0.75;;;11.70;99.90;;;;;;5065693;28;20107;-89
2023/10/20 11:10:37;;;;;;;1.20;1.00;;;11.70;99.90;;;;;;5059878;28;20086;-91
2023/10/20 11:13:08;;;;;;;0.85;0.85;;;11.70;99.90;;;;;;5044012;28;20124;-90
2023/10/20 11:15:35;;;;;;;1.00;0.90;;;11.60;99.90;;;;;;5048046;28;20036;-91
2023/10/20 11:18:04;;;;;;;1.10;1.00;;;11.60;99.90;;;;;;5025415;28;20140;-89
2023/10/20 11:20:37;;;;;;;1.10;1.00;;;11.60;99.90;;;;;;5025492;28;20119;-90
2023/10/20 11:23:05;;;;;;;0.95;0.90;;;11.70;99.90;;;;;;5048661;28;20108;-88
2023/10/20 11:25:31;;;;;;;1.05;0.93;;;11.70;99.90;;;;;;5049377;28;20048;-90
2023/10/20 11:27:57;;;;;;;1.20;1.10;;;11.70;99.90;;;;;;5014794;28;20048;-89
2023/10/20 11:30:26;;;;;;;0.88;0.85;;;11.70;99.90;;;;;;5018103;28;20490;-89
2023/10/20 11:32:54;;;;;;;0.93;0.90;;;11.70;99.90;;;;;;5009940;28;20469;-88
2023/10/20 11:35:26;;;;;;;0.80;0.80;;;11.70;99.90;;;;;;5024429;28;20033;-90
2023/10/20 11:37:53;;;;;;;1.67;1.10;;;11.70;99.90;;;;;;5043869;28;20060;-91
2023/10/20 11:40:22;;;;;;;1.48;0.98;;;11.60;99.90;;;;;;5041898;28;20030;-92
2023/10/20 11:42:48;;;;;;;0.80;0.80;;;11.60;99.90;;;;;;5033464;28;20032;-88
2023/10/20 11:45:15;;;;;;;1.17;0.90;;;11.60;99.90;;;;;;5025068;28;20029;-90
2023/10/20 11:47:41;;;;;;;1.10;1.00;;;11.60;99.90;;;;;;5024857;28;20380;-89
2023/10/20 11:50:11;;;;;;;1.20;0.80;;;11.60;99.90;;;;;;5065130;28;20033;-90
2023/10/20 11:52:42;;;;;;;1.58;1.00;;;11.60;99.90;;;;;;5063849;28;20029;-90
2023/10/20 11:55:12;;;;;;;1.17;0.82;;;11.60;99.90;;;;;;5061221;28;20118;-89
2023/10/20 11:57:39;;;;;;;0.80;0.80;;;11.60;99.90;;;;;;5055787;28;20025;-89
2023/10/20 12:00:13;;;;;;;0.88;0.70;;;11.60;99.90;;;;;;5033632;28;20053;-89
2023/10/20 12:02:39;;;;;;;0.80;0.80;;;11.60;99.90;;;;;;5017062;28;20144;-88
2023/10/20 12:05:08;;;;;;;0.75;0.68;;;11.70;99.90;;;;;;5034670;28;20072;-90
2023/10/20 12:07:34;;;;;;;0.70;0.70;;;11.80;99.90;;;;;;5015892;28;20035;-89
2023/10/20 12:10:08;;;;;;;0.98;0.75;;;11.80;99.90;;;;;;4996442;28;20030;-90
2023/10/20 12:12:34;;;;;;;0.55;0.55;;;11.70;99.90;;;;;;5000643;28;20052;-89
2023/10/20 12:15:00;;;;;;;1.52;0.70;;;11.80;99.90;;;;;;5033219;28;20109;-89
2023/10/20 12:17:26;;;;;;;0.82;0.60;;;11.90;99.90;;;;;;5033864;28;20025;-90
2023/10/20 12:19:51;;;;;;;0.95;0.80;;;11.90;99.90;;;;;;5016931;28;20038;-90
2023/10/20 12:22:17;;;;;;;0.60;0.60;;;11.90;99.90;;;;;;5033065;28;20018;-89
2023/10/20 12:24:43;;;;;;;1.40;0.80;;;11.90;99.90;;;;;;5030171;28;20052;-89
2023/10/20 12:27:09;;;;;;;1.00;0.70;;;11.90;99.90;;;;;;4993595;28;20483;-89
2023/10/20 12:29:36;;;;;;;2.28;0.80;;;11.80;99.90;;;;;;4997125;28;20030;-87
2023/10/20 12:32:03;;;;;;;0.70;0.70;;;11.80;99.90;;;;;;5013283;28;20022;-88
2023/10/20 12:34:29;;;;;;;0.95;0.60;;;11.80;99.90;;;;;;4981150;28;20125;-88
2023/10/20 12:36:55;;;;;;;0.68;0.60;;;11.80;99.90;;;;;;4990480;28;20038;-89
2023/10/20 12:39:21;;;;;;;1.00;0.80;;;11.90;99.90;;;;;;4977487;28;20042;-89
2023/10/20 12:41:49;;;;;;;1.50;0.80;;;11.90;99.90;;;;;;4985838;28;20414;-89
2023/10/20 12:44:14;;;;;;;0.75;0.70;;;11.90;99.90;;;;;;5010087;28;20034;-90
2023/10/20 12:46:44;;;;;;;0.70;0.63;;;11.90;99.90;;;;;;4993582;28;20029;-89
2023/10/20 12:49:10;;;;;;;1.58;0.70;;;12.00;99.90;;;;;;5010389;28;20030;-89
2023/10/20 12:51:37;;;;;;;0.50;0.50;;;12.00;99.90;;;;;;5009652;28;20017;-91
2023/10/20 12:54:11;;;;;;;1.30;0.80;;;12.00;99.90;;;;;;4995614;28;20026;-93
2023/10/20 12:56:37;;;;;;;1.10;0.63;;;12.00;99.90;;;;;;4985599;28;20026;-89
2023/10/20 12:59:04;;;;;;;0.55;0.55;;;12.10;99.90;;;;;;5009877;28;20033;-89
2023/10/20 13:01:30;;;;;;;0.47;0.47;;;12.10;99.90;;;;;;5030781;28;20080;-90
2023/10/20 13:03:56;;;;;;;0.60;0.60;;;12.10;99.90;;;;;;5052812;28;20461;-88
2023/10/20 13:06:25;;;;;;;0.68;0.60;;;12.10;99.90;;;;;;5053274;28;20032;-88